sensor_id;sensor_type;location;lat;lon;timestamp;P1;durP1;ratioP1;P2;durP2;ratioP2
48040;SDS011;33815;48.386;11.738;2022-07-09T00:02:25;5.05;;;3.03;;
48040;SDS011;33815;48.386;11.738;2022-07-09T00:04:50;3.88;;;3.08;;
48040;SDS011;33815;48.386;11.738;2022-07-09T00:07:15;3.15;;;2.83;;
48040;SDS011;33815;48.386;11.738;2022-07-09T00:09:40;2.90;;;2.57;;
48040;SDS011;33815;48.386;11.738;2022-07-09T00:12:06;4.55;;;3.10;;
48040;SDS011;33815;48.386;11.738;2022-07-09T00:14:31;5.63;;;2.80;;
48040;SDS011;33815;48.386;11.738;2022-07-09T00:16:57;3.80;;;2.95;;
48040;SDS011;33815;48.386;11.738;2022-07-09T00:19:22;4.15;;;3.00;;
48040;SDS011;33815;48.386;11.738;2022-07-09T00:21:47;3.83;;;2.83;;
48040;SDS011;33815;48.386;11.738;2022-07-09T00:24:12;6.47;;;2.67;;
48040;SDS011;33815;48.386;11.738;2022-07-09T00:26:38;3.58;;;3.28;;
48040;SDS011;33815;48.386;11.738;2022-07-09T00:29:03;3.00;;;2.80;;
48040;SDS011;33815;48.386;11.738;2022-07-09T00:31:28;5.95;;;3.35;;
48040;SDS011;33815;48.386;11.738;2022-07-09T00:33:54;7.53;;;6.00;;
48040;SDS011;33815;48.386;11.738;2022-07-09T00:36:19;5.13;;;3.50;;
48040;SDS011;33815;48.386;11.738;2022-07-09T00:38:44;3.20;;;2.90;;
48040;SDS011;33815;48.386;11.738;2022-07-09T00:41:10;3.40;;;3.10;;
48040;SDS011;33815;48.386;11.738;2022-07-09T00:43:35;4.93;;;3.58;;
48040;SDS011;33815;48.386;11.738;2022-07-09T00:46:00;3.33;;;2.97;;
48040;SDS011;33815;48.386;11.738;2022-07-09T00:48:26;3.78;;;3.47;;
48040;SDS011;33815;48.386;11.738;2022-07-09T00:50:51;6.25;;;4.45;;
48040;SDS011;33815;48.386;11.738;2022-07-09T00:53:19;3.80;;;3.40;;
48040;SDS011;33815;48.386;11.738;2022-07-09T00:55:48;5.68;;;3.50;;
48040;SDS011;33815;48.386;11.738;2022-07-09T00:58:16;5.60;;;3.80;;
48040;SDS011;33815;48.386;11.738;2022-07-09T01:00:43;9.60;;;3.90;;
48040;SDS011;33815;48.386;11.738;2022-07-09T01:03:08;6.00;;;3.80;;
48040;SDS011;33815;48.386;11.738;2022-07-09T01:05:34;7.25;;;3.83;;
48040;SDS011;33815;48.386;11.738;2022-07-09T01:08:02;3.65;;;3.33;;
48040;SDS011;33815;48.386;11.738;2022-07-09T01:10:29;4.80;;;3.50;;
48040;SDS011;33815;48.386;11.738;2022-07-09T01:12:55;4.68;;;3.00;;
48040;SDS011;33815;48.386;11.738;2022-07-09T01:15:20;6.50;;;3.50;;
48040;SDS011;33815;48.386;11.738;2022-07-09T01:17:45;8.23;;;3.72;;
48040;SDS011;33815;48.386;11.738;2022-07-09T01:20:11;3.80;;;3.40;;
48040;SDS011;33815;48.386;11.738;2022-07-09T01:22:36;8.07;;;4.30;;
48040;SDS011;33815;48.386;11.738;2022-07-09T01:25:02;7.20;;;3.95;;
48040;SDS011;33815;48.386;11.738;2022-07-09T01:27:32;5.65;;;3.63;;
48040;SDS011;33815;48.386;11.738;2022-07-09T01:29:58;6.45;;;3.88;;
48040;SDS011;33815;48.386;11.738;2022-07-09T01:32:23;4.13;;;3.67;;
48040;SDS011;33815;48.386;11.738;2022-07-09T01:34:48;5.30;;;3.87;;
48040;SDS011;33815;48.386;11.738;2022-07-09T01:37:13;6.07;;;3.70;;
48040;SDS011;33815;48.386;11.738;2022-07-09T01:39:39;6.85;;;3.72;;
48040;SDS011;33815;48.386;11.738;2022-07-09T01:42:15;4.20;;;3.72;;
48040;SDS011;33815;48.386;11.738;2022-07-09T01:44:41;3.90;;;3.50;;
48040;SDS011;33815;48.386;11.738;2022-07-09T01:47:06;6.37;;;3.37;;
48040;SDS011;33815;48.386;11.738;2022-07-09T01:49:31;5.53;;;3.73;;
48040;SDS011;33815;48.386;11.738;2022-07-09T01:51:57;5.37;;;3.47;;
48040;SDS011;33815;48.386;11.738;2022-07-09T01:54:22;7.32;;;3.80;;
48040;SDS011;33815;48.386;11.738;2022-07-09T01:56:48;5.23;;;3.57;;
48040;SDS011;33815;48.386;11.738;2022-07-09T01:59:13;5.00;;;3.60;;
48040;SDS011;33815;48.386;11.738;2022-07-09T02:01:38;4.60;;;3.23;;
48040;SDS011;33815;48.386;11.738;2022-07-09T02:04:03;4.33;;;2.90;;
48040;SDS011;33815;48.386;11.738;2022-07-09T02:06:29;3.70;;;2.97;;
48040;SDS011;33815;48.386;11.738;2022-07-09T02:08:54;3.27;;;2.97;;
48040;SDS011;33815;48.386;11.738;2022-07-09T02:11:19;5.00;;;3.20;;
48040;SDS011;33815;48.386;11.738;2022-07-09T02:13:44;7.18;;;2.92;;
48040;SDS011;33815;48.386;11.738;2022-07-09T02:16:10;5.13;;;3.27;;
48040;SDS011;33815;48.386;11.738;2022-07-09T02:18:35;8.13;;;3.30;;
48040;SDS011;33815;48.386;11.738;2022-07-09T02:21:00;5.95;;;3.33;;
48040;SDS011;33815;48.386;11.738;2022-07-09T02:23:26;8.07;;;3.10;;
48040;SDS011;33815;48.386;11.738;2022-07-09T02:25:51;7.00;;;3.53;;
48040;SDS011;33815;48.386;11.738;2022-07-09T02:28:16;8.13;;;3.73;;
48040;SDS011;33815;48.386;11.738;2022-07-09T02:30:41;6.50;;;3.10;;
48040;SDS011;33815;48.386;11.738;2022-07-09T02:33:07;4.72;;;3.13;;
48040;SDS011;33815;48.386;11.738;2022-07-09T02:35:33;6.63;;;3.25;;
48040;SDS011;33815;48.386;11.738;2022-07-09T02:37:58;7.43;;;3.10;;
48040;SDS011;33815;48.386;11.738;2022-07-09T02:40:23;3.20;;;2.85;;
48040;SDS011;33815;48.386;11.738;2022-07-09T02:42:48;4.93;;;3.00;;
48040;SDS011;33815;48.386;11.738;2022-07-09T02:45:14;5.13;;;2.80;;
48040;SDS011;33815;48.386;11.738;2022-07-09T02:47:39;5.90;;;3.28;;
48040;SDS011;33815;48.386;11.738;2022-07-09T02:50:05;6.70;;;2.80;;
48040;SDS011;33815;48.386;11.738;2022-07-09T02:52:30;5.07;;;3.08;;
48040;SDS011;33815;48.386;11.738;2022-07-09T02:54:56;5.22;;;2.63;;
48040;SDS011;33815;48.386;11.738;2022-07-09T02:57:21;4.30;;;3.00;;
48040;SDS011;33815;48.386;11.738;2022-07-09T02:59:46;3.63;;;2.77;;
48040;SDS011;33815;48.386;11.738;2022-07-09T03:02:11;4.07;;;3.00;;
48040;SDS011;33815;48.386;11.738;2022-07-09T03:04:37;5.47;;;2.80;;
48040;SDS011;33815;48.386;11.738;2022-07-09T03:07:02;5.83;;;3.07;;
48040;SDS011;33815;48.386;11.738;2022-07-09T03:09:27;9.45;;;4.88;;
48040;SDS011;33815;48.386;11.738;2022-07-09T03:11:53;6.55;;;3.05;;
48040;SDS011;33815;48.386;11.738;2022-07-09T03:14:19;5.15;;;2.88;;
48040;SDS011;33815;48.386;11.738;2022-07-09T03:16:44;3.22;;;2.80;;
48040;SDS011;33815;48.386;11.738;2022-07-09T03:19:09;3.63;;;2.47;;
48040;SDS011;33815;48.386;11.738;2022-07-09T03:21:34;3.03;;;2.47;;
48040;SDS011;33815;48.386;11.738;2022-07-09T03:24:00;6.40;;;2.95;;
48040;SDS011;33815;48.386;11.738;2022-07-09T03:26:25;5.37;;;2.97;;
48040;SDS011;33815;48.386;11.738;2022-07-09T03:28:50;5.97;;;2.97;;
48040;SDS011;33815;48.386;11.738;2022-07-09T03:31:15;4.30;;;3.47;;
48040;SDS011;33815;48.386;11.738;2022-07-09T03:33:41;8.10;;;3.38;;
48040;SDS011;33815;48.386;11.738;2022-07-09T03:36:06;7.63;;;3.30;;
48040;SDS011;33815;48.386;11.738;2022-07-09T03:38:32;5.55;;;3.17;;
48040;SDS011;33815;48.386;11.738;2022-07-09T03:40:58;6.40;;;2.83;;
48040;SDS011;33815;48.386;11.738;2022-07-09T03:43:23;10.20;;;3.03;;
48040;SDS011;33815;48.386;11.738;2022-07-09T03:45:49;6.57;;;5.13;;
48040;SDS011;33815;48.386;11.738;2022-07-09T03:48:14;5.72;;;2.92;;
48040;SDS011;33815;48.386;11.738;2022-07-09T03:50:39;4.38;;;2.70;;
48040;SDS011;33815;48.386;11.738;2022-07-09T03:53:04;4.85;;;3.50;;
48040;SDS011;33815;48.386;11.738;2022-07-09T03:55:30;7.90;;;3.33;;
48040;SDS011;33815;48.386;11.738;2022-07-09T03:57:56;3.53;;;2.75;;
48040;SDS011;33815;48.386;11.738;2022-07-09T04:00:21;6.87;;;3.40;;
48040;SDS011;33815;48.386;11.738;2022-07-09T04:02:46;9.70;;;3.10;;
48040;SDS011;33815;48.386;11.738;2022-07-09T04:05:11;4.50;;;2.90;;
48040;SDS011;33815;48.386;11.738;2022-07-09T04:07:37;6.18;;;3.03;;
48040;SDS011;33815;48.386;11.738;2022-07-09T04:10:02;3.88;;;2.47;;
48040;SDS011;33815;48.386;11.738;2022-07-09T04:12:28;5.00;;;2.80;;
48040;SDS011;33815;48.386;11.738;2022-07-09T04:14:53;5.20;;;3.05;;
48040;SDS011;33815;48.386;11.738;2022-07-09T04:17:18;7.73;;;3.10;;
48040;SDS011;33815;48.386;11.738;2022-07-09T04:19:43;9.38;;;4.63;;
48040;SDS011;33815;48.386;11.738;2022-07-09T04:22:09;5.72;;;2.97;;
48040;SDS011;33815;48.386;11.738;2022-07-09T04:24:34;9.90;;;4.30;;
48040;SDS011;33815;48.386;11.738;2022-07-09T04:26:59;7.57;;;2.70;;
48040;SDS011;33815;48.386;11.738;2022-07-09T04:29:24;5.05;;;2.80;;
48040;SDS011;33815;48.386;11.738;2022-07-09T04:31:50;3.58;;;2.38;;
48040;SDS011;33815;48.386;11.738;2022-07-09T04:34:15;7.13;;;3.40;;
48040;SDS011;33815;48.386;11.738;2022-07-09T04:36:40;7.90;;;3.10;;
48040;SDS011;33815;48.386;11.738;2022-07-09T04:39:06;8.23;;;3.25;;
48040;SDS011;33815;48.386;11.738;2022-07-09T04:41:31;4.78;;;3.03;;
48040;SDS011;33815;48.386;11.738;2022-07-09T04:43:57;3.30;;;3.00;;
48040;SDS011;33815;48.386;11.738;2022-07-09T04:46:22;3.97;;;2.67;;
48040;SDS011;33815;48.386;11.738;2022-07-09T04:48:50;3.83;;;2.47;;
48040;SDS011;33815;48.386;11.738;2022-07-09T04:51:16;6.07;;;2.50;;
48040;SDS011;33815;48.386;11.738;2022-07-09T04:53:41;6.30;;;3.33;;
48040;SDS011;33815;48.386;11.738;2022-07-09T04:56:06;4.00;;;2.70;;
48040;SDS011;33815;48.386;11.738;2022-07-09T04:58:32;8.27;;;3.10;;
48040;SDS011;33815;48.386;11.738;2022-07-09T05:00:58;7.43;;;2.30;;
48040;SDS011;33815;48.386;11.738;2022-07-09T05:03:24;5.93;;;2.08;;
48040;SDS011;33815;48.386;11.738;2022-07-09T05:05:50;6.57;;;2.47;;
48040;SDS011;33815;48.386;11.738;2022-07-09T05:08:16;6.18;;;2.72;;
48040;SDS011;33815;48.386;11.738;2022-07-09T05:10:41;4.68;;;2.58;;
48040;SDS011;33815;48.386;11.738;2022-07-09T05:13:07;5.60;;;2.60;;
48040;SDS011;33815;48.386;11.738;2022-07-09T05:15:32;6.57;;;2.72;;
48040;SDS011;33815;48.386;11.738;2022-07-09T05:17:58;3.67;;;2.17;;
48040;SDS011;33815;48.386;11.738;2022-07-09T05:20:24;4.97;;;2.17;;
48040;SDS011;33815;48.386;11.738;2022-07-09T05:22:49;2.00;;;1.85;;
48040;SDS011;33815;48.386;11.738;2022-07-09T05:25:15;4.90;;;2.70;;
48040;SDS011;33815;48.386;11.738;2022-07-09T05:27:41;3.67;;;2.50;;
48040;SDS011;33815;48.386;11.738;2022-07-09T05:30:07;9.00;;;2.50;;
48040;SDS011;33815;48.386;11.738;2022-07-09T05:32:33;3.67;;;2.60;;
48040;SDS011;33815;48.386;11.738;2022-07-09T05:34:58;5.20;;;2.35;;
48040;SDS011;33815;48.386;11.738;2022-07-09T05:37:23;2.77;;;2.37;;
48040;SDS011;33815;48.386;11.738;2022-07-09T05:39:48;5.43;;;2.57;;
48040;SDS011;33815;48.386;11.738;2022-07-09T05:42:14;7.20;;;2.87;;
48040;SDS011;33815;48.386;11.738;2022-07-09T05:44:39;3.78;;;2.50;;
48040;SDS011;33815;48.386;11.738;2022-07-09T05:47:04;7.85;;;2.83;;
48040;SDS011;33815;48.386;11.738;2022-07-09T05:49:29;4.63;;;2.30;;
48040;SDS011;33815;48.386;11.738;2022-07-09T05:51:55;4.23;;;2.57;;
48040;SDS011;33815;48.386;11.738;2022-07-09T05:54:21;6.05;;;2.63;;
48040;SDS011;33815;48.386;11.738;2022-07-09T05:56:46;3.15;;;2.28;;
48040;SDS011;33815;48.386;11.738;2022-07-09T05:59:12;5.37;;;2.20;;
48040;SDS011;33815;48.386;11.738;2022-07-09T06:01:37;5.93;;;2.50;;
48040;SDS011;33815;48.386;11.738;2022-07-09T06:04:05;4.50;;;2.10;;
48040;SDS011;33815;48.386;11.738;2022-07-09T06:06:31;5.07;;;2.05;;
48040;SDS011;33815;48.386;11.738;2022-07-09T06:08:56;2.65;;;2.45;;
48040;SDS011;33815;48.386;11.738;2022-07-09T06:11:21;4.40;;;2.60;;
48040;SDS011;33815;48.386;11.738;2022-07-09T06:13:46;3.70;;;2.35;;
48040;SDS011;33815;48.386;11.738;2022-07-09T06:16:12;4.50;;;2.42;;
48040;SDS011;33815;48.386;11.738;2022-07-09T06:18:37;2.70;;;2.10;;
48040;SDS011;33815;48.386;11.738;2022-07-09T06:21:02;3.22;;;2.58;;
48040;SDS011;33815;48.386;11.738;2022-07-09T06:23:28;2.95;;;2.20;;
48040;SDS011;33815;48.386;11.738;2022-07-09T06:25:53;6.63;;;2.90;;
48040;SDS011;33815;48.386;11.738;2022-07-09T06:28:19;4.43;;;2.50;;
48040;SDS011;33815;48.386;11.738;2022-07-09T06:30:44;4.05;;;2.35;;
48040;SDS011;33815;48.386;11.738;2022-07-09T06:33:10;4.70;;;2.20;;
48040;SDS011;33815;48.386;11.738;2022-07-09T06:35:35;2.27;;;1.73;;
48040;SDS011;33815;48.386;11.738;2022-07-09T06:38:00;5.20;;;2.08;;
48040;SDS011;33815;48.386;11.738;2022-07-09T06:40:26;4.40;;;2.65;;
48040;SDS011;33815;48.386;11.738;2022-07-09T06:42:51;5.38;;;2.42;;
48040;SDS011;33815;48.386;11.738;2022-07-09T06:45:16;2.50;;;2.03;;
48040;SDS011;33815;48.386;11.738;2022-07-09T06:47:42;4.78;;;2.35;;
48040;SDS011;33815;48.386;11.738;2022-07-09T06:50:07;6.17;;;2.20;;
48040;SDS011;33815;48.386;11.738;2022-07-09T06:52:32;6.45;;;2.25;;
48040;SDS011;33815;48.386;11.738;2022-07-09T06:54:57;2.47;;;1.90;;
48040;SDS011;33815;48.386;11.738;2022-07-09T06:57:23;5.07;;;2.60;;
48040;SDS011;33815;48.386;11.738;2022-07-09T06:59:48;5.13;;;2.20;;
48040;SDS011;33815;48.386;11.738;2022-07-09T07:02:14;9.87;;;2.73;;
48040;SDS011;33815;48.386;11.738;2022-07-09T07:04:41;3.92;;;2.08;;
48040;SDS011;33815;48.386;11.738;2022-07-09T07:07:06;6.03;;;2.40;;
48040;SDS011;33815;48.386;11.738;2022-07-09T07:09:31;6.75;;;2.53;;
48040;SDS011;33815;48.386;11.738;2022-07-09T07:11:57;4.17;;;2.30;;
48040;SDS011;33815;48.386;11.738;2022-07-09T07:14:22;3.00;;;1.70;;
48040;SDS011;33815;48.386;11.738;2022-07-09T07:16:48;6.78;;;2.25;;
48040;SDS011;33815;48.386;11.738;2022-07-09T07:19:13;3.37;;;2.27;;
48040;SDS011;33815;48.386;11.738;2022-07-09T07:21:38;4.93;;;2.00;;
48040;SDS011;33815;48.386;11.738;2022-07-09T07:24:05;4.50;;;2.35;;
48040;SDS011;33815;48.386;11.738;2022-07-09T07:26:30;4.43;;;2.10;;
48040;SDS011;33815;48.386;11.738;2022-07-09T07:28:56;4.38;;;2.40;;
48040;SDS011;33815;48.386;11.738;2022-07-09T07:31:21;5.55;;;2.28;;
48040;SDS011;33815;48.386;11.738;2022-07-09T07:33:48;5.80;;;2.05;;
48040;SDS011;33815;48.386;11.738;2022-07-09T07:36:13;3.28;;;1.75;;
48040;SDS011;33815;48.386;11.738;2022-07-09T07:38:39;3.33;;;1.63;;
48040;SDS011;33815;48.386;11.738;2022-07-09T07:41:04;4.17;;;2.00;;
48040;SDS011;33815;48.386;11.738;2022-07-09T07:43:29;4.35;;;2.53;;
48040;SDS011;33815;48.386;11.738;2022-07-09T07:45:55;3.60;;;2.10;;
48040;SDS011;33815;48.386;11.738;2022-07-09T07:48:20;6.13;;;2.53;;
48040;SDS011;33815;48.386;11.738;2022-07-09T07:50:45;2.90;;;1.88;;
48040;SDS011;33815;48.386;11.738;2022-07-09T07:53:10;4.20;;;1.70;;
48040;SDS011;33815;48.386;11.738;2022-07-09T07:55:36;5.97;;;2.13;;
48040;SDS011;33815;48.386;11.738;2022-07-09T07:58:01;6.35;;;2.00;;
48040;SDS011;33815;48.386;11.738;2022-07-09T08:00:26;4.22;;;2.35;;
48040;SDS011;33815;48.386;11.738;2022-07-09T08:02:52;3.85;;;2.00;;
48040;SDS011;33815;48.386;11.738;2022-07-09T08:05:17;7.00;;;2.47;;
48040;SDS011;33815;48.386;11.738;2022-07-09T08:07:42;3.63;;;1.90;;
48040;SDS011;33815;48.386;11.738;2022-07-09T08:10:08;4.32;;;1.70;;
48040;SDS011;33815;48.386;11.738;2022-07-09T08:12:34;4.65;;;1.88;;
48040;SDS011;33815;48.386;11.738;2022-07-09T08:14:59;4.93;;;2.72;;
48040;SDS011;33815;48.386;11.738;2022-07-09T08:17:24;4.82;;;2.17;;
48040;SDS011;33815;48.386;11.738;2022-07-09T08:19:50;2.55;;;1.95;;
48040;SDS011;33815;48.386;11.738;2022-07-09T08:22:15;4.30;;;2.00;;
48040;SDS011;33815;48.386;11.738;2022-07-09T08:24:41;3.33;;;1.63;;
48040;SDS011;33815;48.386;11.738;2022-07-09T08:27:06;5.18;;;1.73;;
48040;SDS011;33815;48.386;11.738;2022-07-09T08:29:32;3.22;;;1.50;;
48040;SDS011;33815;48.386;11.738;2022-07-09T08:31:57;10.63;;;1.75;;
48040;SDS011;33815;48.386;11.738;2022-07-09T08:34:22;4.80;;;1.50;;
48040;SDS011;33815;48.386;11.738;2022-07-09T08:36:48;5.47;;;2.10;;
48040;SDS011;33815;48.386;11.738;2022-07-09T08:39:13;4.40;;;1.80;;
48040;SDS011;33815;48.386;11.738;2022-07-09T08:41:38;3.72;;;1.75;;
48040;SDS011;33815;48.386;11.738;2022-07-09T08:44:04;4.55;;;1.60;;
48040;SDS011;33815;48.386;11.738;2022-07-09T08:46:30;5.90;;;1.80;;
48040;SDS011;33815;48.386;11.738;2022-07-09T08:48:56;4.90;;;2.85;;
48040;SDS011;33815;48.386;11.738;2022-07-09T08:51:23;3.65;;;1.38;;
48040;SDS011;33815;48.386;11.738;2022-07-09T08:53:48;7.47;;;1.92;;
48040;SDS011;33815;48.386;11.738;2022-07-09T08:56:14;2.88;;;1.50;;
48040;SDS011;33815;48.386;11.738;2022-07-09T08:58:39;5.88;;;1.98;;
48040;SDS011;33815;48.386;11.738;2022-07-09T09:01:05;7.65;;;1.73;;
48040;SDS011;33815;48.386;11.738;2022-07-09T09:03:31;4.18;;;1.42;;
48040;SDS011;33815;48.386;11.738;2022-07-09T09:06:07;7.88;;;1.92;;
48040;SDS011;33815;48.386;11.738;2022-07-09T09:08:43;3.53;;;1.23;;
48040;SDS011;33815;48.386;11.738;2022-07-09T09:11:22;3.95;;;1.42;;
48040;SDS011;33815;48.386;11.738;2022-07-09T09:13:49;4.05;;;1.80;;
48040;SDS011;33815;48.386;11.738;2022-07-09T09:16:16;5.70;;;1.27;;
48040;SDS011;33815;48.386;11.738;2022-07-09T09:18:43;5.75;;;1.33;;
48040;SDS011;33815;48.386;11.738;2022-07-09T09:21:11;4.03;;;1.15;;
48040;SDS011;33815;48.386;11.738;2022-07-09T09:26:18;3.53;;;1.70;;
48040;SDS011;33815;48.386;11.738;2022-07-09T09:28:54;5.32;;;1.98;;
48040;SDS011;33815;48.386;11.738;2022-07-09T09:31:21;2.97;;;1.20;;
48040;SDS011;33815;48.386;11.738;2022-07-09T09:33:53;3.17;;;1.13;;
48040;SDS011;33815;48.386;11.738;2022-07-09T09:38:52;2.17;;;0.93;;
48040;SDS011;33815;48.386;11.738;2022-07-09T09:41:26;2.67;;;1.03;;
48040;SDS011;33815;48.386;11.738;2022-07-09T09:43:52;2.92;;;1.42;;
48040;SDS011;33815;48.386;11.738;2022-07-09T09:46:21;7.25;;;1.40;;
48040;SDS011;33815;48.386;11.738;2022-07-09T09:48:48;3.17;;;1.10;;
48040;SDS011;33815;48.386;11.738;2022-07-09T09:51:15;4.78;;;1.42;;
48040;SDS011;33815;48.386;11.738;2022-07-09T09:53:44;4.15;;;1.33;;
48040;SDS011;33815;48.386;11.738;2022-07-09T09:56:10;7.50;;;2.53;;
48040;SDS011;33815;48.386;11.738;2022-07-09T09:58:36;2.92;;;1.33;;
48040;SDS011;33815;48.386;11.738;2022-07-09T10:01:02;1.95;;;1.30;;
48040;SDS011;33815;48.386;11.738;2022-07-09T10:03:27;4.63;;;1.30;;
48040;SDS011;33815;48.386;11.738;2022-07-09T10:05:53;1.77;;;1.20;;
48040;SDS011;33815;48.386;11.738;2022-07-09T10:08:19;4.13;;;1.47;;
48040;SDS011;33815;48.386;11.738;2022-07-09T10:10:50;1.90;;;0.90;;
48040;SDS011;33815;48.386;11.738;2022-07-09T10:13:22;4.28;;;1.35;;
48040;SDS011;33815;48.386;11.738;2022-07-09T10:15:48;2.38;;;1.40;;
48040;SDS011;33815;48.386;11.738;2022-07-09T10:18:16;1.98;;;1.20;;
48040;SDS011;33815;48.386;11.738;2022-07-09T10:20:43;6.72;;;1.63;;
48040;SDS011;33815;48.386;11.738;2022-07-09T10:23:19;2.90;;;1.10;;
48040;SDS011;33815;48.386;11.738;2022-07-09T10:25:47;4.18;;;1.40;;
48040;SDS011;33815;48.386;11.738;2022-07-09T10:28:17;1.90;;;1.17;;
48040;SDS011;33815;48.386;11.738;2022-07-09T10:30:44;6.75;;;1.30;;
48040;SDS011;33815;48.386;11.738;2022-07-09T10:33:10;2.08;;;1.10;;
48040;SDS011;33815;48.386;11.738;2022-07-09T10:35:47;3.03;;;1.25;;
48040;SDS011;33815;48.386;11.738;2022-07-09T10:38:17;2.17;;;1.08;;
48040;SDS011;33815;48.386;11.738;2022-07-09T10:40:46;1.88;;;1.13;;
48040;SDS011;33815;48.386;11.738;2022-07-09T10:43:20;3.78;;;1.10;;
48040;SDS011;33815;48.386;11.738;2022-07-09T10:46:13;2.80;;;0.98;;
48040;SDS011;33815;48.386;11.738;2022-07-09T10:48:39;1.10;;;1.00;;
48040;SDS011;33815;48.386;11.738;2022-07-09T10:51:05;2.58;;;1.38;;
48040;SDS011;33815;48.386;11.738;2022-07-09T10:53:30;3.42;;;1.30;;
48040;SDS011;33815;48.386;11.738;2022-07-09T10:55:56;2.35;;;1.08;;
48040;SDS011;33815;48.386;11.738;2022-07-09T10:58:23;5.88;;;1.10;;
48040;SDS011;33815;48.386;11.738;2022-07-09T11:00:55;1.90;;;1.10;;
48040;SDS011;33815;48.386;11.738;2022-07-09T11:03:25;3.47;;;1.25;;
48040;SDS011;33815;48.386;11.738;2022-07-09T11:05:51;4.57;;;1.25;;
48040;SDS011;33815;48.386;11.738;2022-07-09T11:08:17;6.63;;;4.20;;
48040;SDS011;33815;48.386;11.738;2022-07-09T11:10:42;5.20;;;2.30;;
48040;SDS011;33815;48.386;11.738;2022-07-09T11:13:08;1.05;;;0.95;;
48040;SDS011;33815;48.386;11.738;2022-07-09T11:15:34;1.63;;;0.93;;
48040;SDS011;33815;48.386;11.738;2022-07-09T11:18:05;3.85;;;1.00;;
48040;SDS011;33815;48.386;11.738;2022-07-09T11:20:41;4.15;;;2.03;;
48040;SDS011;33815;48.386;11.738;2022-07-09T11:23:09;8.13;;;3.30;;
48040;SDS011;33815;48.386;11.738;2022-07-09T11:25:35;5.90;;;1.67;;
48040;SDS011;33815;48.386;11.738;2022-07-09T11:28:01;4.70;;;3.08;;
48040;SDS011;33815;48.386;11.738;2022-07-09T11:30:27;6.55;;;1.38;;
48040;SDS011;33815;48.386;11.738;2022-07-09T11:32:54;1.08;;;0.85;;
48040;SDS011;33815;48.386;11.738;2022-07-09T11:35:23;5.90;;;1.20;;
48040;SDS011;33815;48.386;11.738;2022-07-09T11:37:51;2.30;;;1.00;;
48040;SDS011;33815;48.386;11.738;2022-07-09T11:40:17;4.05;;;1.20;;
48040;SDS011;33815;48.386;11.738;2022-07-09T11:42:43;3.65;;;0.95;;
48040;SDS011;33815;48.386;11.738;2022-07-09T11:45:08;4.97;;;1.10;;
48040;SDS011;33815;48.386;11.738;2022-07-09T11:47:38;3.28;;;1.05;;
48040;SDS011;33815;48.386;11.738;2022-07-09T11:50:11;2.97;;;1.40;;
48040;SDS011;33815;48.386;11.738;2022-07-09T11:52:45;2.75;;;1.40;;
48040;SDS011;33815;48.386;11.738;2022-07-09T11:55:11;3.72;;;1.13;;
48040;SDS011;33815;48.386;11.738;2022-07-09T11:57:39;1.83;;;1.00;;
48040;SDS011;33815;48.386;11.738;2022-07-09T12:00:25;2.97;;;1.25;;
48040;SDS011;33815;48.386;11.738;2022-07-09T12:02:53;2.40;;;0.90;;
48040;SDS011;33815;48.386;11.738;2022-07-09T12:05:29;2.55;;;0.90;;
48040;SDS011;33815;48.386;11.738;2022-07-09T12:08:03;4.82;;;1.08;;
48040;SDS011;33815;48.386;11.738;2022-07-09T12:10:37;3.63;;;1.38;;
48040;SDS011;33815;48.386;11.738;2022-07-09T12:13:04;4.28;;;1.00;;
48040;SDS011;33815;48.386;11.738;2022-07-09T12:15:31;2.33;;;1.10;;
48040;SDS011;33815;48.386;11.738;2022-07-09T12:17:57;2.15;;;0.93;;
48040;SDS011;33815;48.386;11.738;2022-07-09T12:20:27;5.13;;;0.82;;
48040;SDS011;33815;48.386;11.738;2022-07-09T12:22:54;1.48;;;0.90;;
48040;SDS011;33815;48.386;11.738;2022-07-09T12:25:20;1.52;;;0.80;;
48040;SDS011;33815;48.386;11.738;2022-07-09T12:27:46;3.22;;;1.27;;
48040;SDS011;33815;48.386;11.738;2022-07-09T12:30:12;2.10;;;0.80;;
48040;SDS011;33815;48.386;11.738;2022-07-09T12:32:38;1.52;;;1.10;;
48040;SDS011;33815;48.386;11.738;2022-07-09T12:35:04;3.03;;;1.00;;
48040;SDS011;33815;48.386;11.738;2022-07-09T12:37:30;2.75;;;0.82;;
48040;SDS011;33815;48.386;11.738;2022-07-09T12:39:55;2.87;;;0.90;;
48040;SDS011;33815;48.386;11.738;2022-07-09T12:42:20;1.47;;;0.80;;
48040;SDS011;33815;48.386;11.738;2022-07-09T12:44:46;1.63;;;0.73;;
48040;SDS011;33815;48.386;11.738;2022-07-09T12:47:12;1.30;;;0.80;;
48040;SDS011;33815;48.386;11.738;2022-07-09T12:49:37;2.55;;;0.85;;
48040;SDS011;33815;48.386;11.738;2022-07-09T12:52:03;3.38;;;0.75;;
48040;SDS011;33815;48.386;11.738;2022-07-09T12:54:28;1.63;;;0.65;;
48040;SDS011;33815;48.386;11.738;2022-07-09T12:56:54;2.83;;;0.77;;
48040;SDS011;33815;48.386;11.738;2022-07-09T12:59:20;1.50;;;0.93;;
48040;SDS011;33815;48.386;11.738;2022-07-09T13:01:46;1.95;;;0.70;;
48040;SDS011;33815;48.386;11.738;2022-07-09T13:04:11;2.08;;;0.75;;
48040;SDS011;33815;48.386;11.738;2022-07-09T13:06:36;1.40;;;0.70;;
48040;SDS011;33815;48.386;11.738;2022-07-09T13:09:03;3.72;;;0.75;;
48040;SDS011;33815;48.386;11.738;2022-07-09T13:11:30;2.95;;;0.68;;
48040;SDS011;33815;48.386;11.738;2022-07-09T13:13:56;4.15;;;0.90;;
48040;SDS011;33815;48.386;11.738;2022-07-09T13:16:21;2.67;;;0.70;;
48040;SDS011;33815;48.386;11.738;2022-07-09T13:18:48;3.90;;;1.10;;
48040;SDS011;33815;48.386;11.738;2022-07-09T13:21:14;3.92;;;0.88;;
48040;SDS011;33815;48.386;11.738;2022-07-09T13:23:40;2.40;;;1.00;;
48040;SDS011;33815;48.386;11.738;2022-07-09T13:26:06;2.55;;;0.73;;
48040;SDS011;33815;48.386;11.738;2022-07-09T13:28:31;1.15;;;0.80;;
48040;SDS011;33815;48.386;11.738;2022-07-09T13:30:57;0.88;;;0.60;;
48040;SDS011;33815;48.386;11.738;2022-07-09T13:33:23;3.97;;;0.80;;
48040;SDS011;33815;48.386;11.738;2022-07-09T13:35:48;1.23;;;0.87;;
48040;SDS011;33815;48.386;11.738;2022-07-09T13:38:13;5.23;;;0.70;;
48040;SDS011;33815;48.386;11.738;2022-07-09T13:40:39;0.95;;;0.60;;
48040;SDS011;33815;48.386;11.738;2022-07-09T13:43:04;4.40;;;0.80;;
48040;SDS011;33815;48.386;11.738;2022-07-09T13:45:29;2.05;;;1.30;;
48040;SDS011;33815;48.386;11.738;2022-07-09T13:47:55;0.57;;;0.57;;
48040;SDS011;33815;48.386;11.738;2022-07-09T13:50:20;4.45;;;0.75;;
48040;SDS011;33815;48.386;11.738;2022-07-09T13:52:47;1.02;;;0.68;;
48040;SDS011;33815;48.386;11.738;2022-07-09T13:55:12;3.03;;;0.95;;
48040;SDS011;33815;48.386;11.738;2022-07-09T13:57:38;2.95;;;1.20;;
48040;SDS011;33815;48.386;11.738;2022-07-09T14:00:03;1.03;;;0.73;;
48040;SDS011;33815;48.386;11.738;2022-07-09T14:02:30;2.08;;;0.60;;
48040;SDS011;33815;48.386;11.738;2022-07-09T14:04:57;4.72;;;1.10;;
48040;SDS011;33815;48.386;11.738;2022-07-09T14:07:23;1.27;;;0.85;;
48040;SDS011;33815;48.386;11.738;2022-07-09T14:09:48;2.00;;;0.70;;
48040;SDS011;33815;48.386;11.738;2022-07-09T14:12:13;3.88;;;0.82;;
48040;SDS011;33815;48.386;11.738;2022-07-09T14:14:39;3.78;;;0.93;;
48040;SDS011;33815;48.386;11.738;2022-07-09T14:17:04;1.57;;;0.90;;
48040;SDS011;33815;48.386;11.738;2022-07-09T14:19:29;1.85;;;1.50;;
48040;SDS011;33815;48.386;11.738;2022-07-09T14:21:55;5.73;;;0.70;;
48040;SDS011;33815;48.386;11.738;2022-07-09T14:24:20;1.63;;;0.80;;
48040;SDS011;33815;48.386;11.738;2022-07-09T14:26:45;2.10;;;0.80;;
48040;SDS011;33815;48.386;11.738;2022-07-09T14:29:12;1.15;;;0.82;;
48040;SDS011;33815;48.386;11.738;2022-07-09T14:31:39;3.90;;;0.90;;
48040;SDS011;33815;48.386;11.738;2022-07-09T14:34:04;0.75;;;0.75;;